weather.gov     
National Weather Service

Terminal Aerodrome Forecast
NWS Homepage
This page is being discontinued on March 12, 2014.
The same data is available at this site. Please update your bookmarks.
Thank you, and we apologize for the inconvenience.
Please send an email to SR-SRH.Webmaster@noaa.gov with any concerns.


Current Version
Previous Version:    01  02  03  04  05  06  07  08  09  10  11  12  13  14  15  16  17  18  19  20  21  22  23  24  25  26  27  28  29  30  
   31  32  33  34  35  
[Printable]
191
FTUS42 KTBW 252300
TAFPIE
TAF
KPIE 252340Z 2600/2624 20006KT P6SM BKN250
     FM260200 20006KT P6SM SCT050 BKN250
     FM260600 21010KT P6SM VCSH SCT020 OVC050
     FM260900 24012G18KT P6SM VCSH SCT015 OVC035
      TEMPO 2609/2612 4SM SHRA BKN015
     FM261200 30015G25KT P6SM VCSH SCT015 OVC035
      TEMPO 2612/2615 BKN015
     FM261500 30022G32KT P6SM FEW020 BKN035
     FM262000 30022G32KT P6SM SCT035=


U.S. Dept. of Commerce
NOAA National Weather Service
1325 East West Highway
Silver Spring, MD 20910
E-mail: w-nws.webmaster@noaa.gov
Page last modified: May 16, 2007
NATIONAL WEATHER SERVICE: for Safety, for Work, for Fun - FOR LIFE